<?xml version='1.0' encoding='UTF-8'?>
<gpx xmlns="http://www.topografix.com/GPX/1/1" creator="www.balnam.be" version="1.1" xmlns:xsi="http://www.w3.org/2001/XMLSchema-instance" xsi:schemaLocation="http://www.topografix.com/GPX/1/1 http://www.topografix.com/GPX/1/1/gpx.xsd">
<trk>
<name>hlncv6</name>
<cmt>v</cmt>
<desc>Cambron-Saint-Vincent Chemin n°6 Chemin Vert</desc>
<link href="https://chemins.be/cambronsaintvincent/chemin/6"/><trkseg>
<trkpt lat="50.595696" lon="3.927571"><time>2026-05-02T16:08:14Z</time></trkpt>
<trkpt lat="50.595514" lon="3.927106"><time>2026-05-02T16:18:14Z</time></trkpt>
<trkpt lat="50.594868" lon="3.925191"><time>2026-05-02T16:28:14Z</time></trkpt>
<trkpt lat="50.594778" lon="3.924980"><time>2026-05-02T16:38:14Z</time></trkpt>
<trkpt lat="50.594396" lon="3.923882"><time>2026-05-02T16:48:14Z</time></trkpt>
<trkpt lat="50.594005" lon="3.922841"><time>2026-05-02T16:58:14Z</time></trkpt>
<trkpt lat="50.593578" lon="3.921602"><time>2026-05-02T17:08:14Z</time></trkpt>
<trkpt lat="50.593323" lon="3.920658"><time>2026-05-02T17:18:14Z</time></trkpt>
<trkpt lat="50.593177" lon="3.920222"><time>2026-05-02T17:28:14Z</time></trkpt>
<trkpt lat="50.592634" lon="3.919083"><time>2026-05-02T17:38:14Z</time></trkpt>
<trkpt lat="50.592597" lon="3.918843"><time>2026-05-02T17:48:14Z</time></trkpt>
<trkpt lat="50.592501" lon="3.917375"><time>2026-05-02T17:58:14Z</time></trkpt>
<trkpt lat="50.592455" lon="3.917206"><time>2026-05-02T18:08:14Z</time></trkpt>
<trkpt lat="50.592338" lon="3.916953"><time>2026-05-02T18:18:14Z</time></trkpt>
<trkpt lat="50.592003" lon="3.916377"><time>2026-05-02T18:28:14Z</time></trkpt>
<trkpt lat="50.591071" lon="3.914889"><time>2026-05-02T18:38:14Z</time></trkpt>
<trkpt lat="50.590646" lon="3.914187"><time>2026-05-02T18:48:14Z</time></trkpt>
<trkpt lat="50.589613" lon="3.912290"><time>2026-05-02T18:58:14Z</time></trkpt>
<trkpt lat="50.589368" lon="3.911671"><time>2026-05-02T19:08:14Z</time></trkpt>
<trkpt lat="50.589176" lon="3.910882"><time>2026-05-02T19:18:14Z</time></trkpt>
<trkpt lat="50.589166" lon="3.910628"><time>2026-05-02T19:28:14Z</time></trkpt>
<trkpt lat="50.589129" lon="3.910332"><time>2026-05-02T19:38:14Z</time></trkpt>
<trkpt lat="50.589047" lon="3.910022"><time>2026-05-02T19:48:14Z</time></trkpt>
<trkpt lat="50.588920" lon="3.909727"><time>2026-05-02T19:58:14Z</time></trkpt>
<trkpt lat="50.588621" lon="3.909151"><time>2026-05-02T20:08:14Z</time></trkpt>
<trkpt lat="50.588205" lon="3.908463"><time>2026-05-02T20:18:14Z</time></trkpt>
<trkpt lat="50.586803" lon="3.906386"><time>2026-05-02T20:28:14Z</time></trkpt>
<trkpt lat="50.586496" lon="3.905909"><time>2026-05-02T20:38:14Z</time></trkpt>
<trkpt lat="50.586260" lon="3.905446"><time>2026-05-02T20:48:14Z</time></trkpt>
</trkseg>
</trk>
</gpx>